sensor_id;sensor_type;location;lat;lon;timestamp;pressure;altitude;pressure_sealevel;temperature;humidity
42633;BME280;28261;53.304;-6.284;2023-03-22T00:00:35;98180.13;;;10.87;100.00
42633;BME280;28261;53.304;-6.284;2023-03-22T00:02:39;98170.22;;;10.89;100.00
42633;BME280;28261;53.304;-6.284;2023-03-22T00:04:44;98186.13;;;10.89;100.00
42633;BME280;28261;53.304;-6.284;2023-03-22T00:06:48;98159.59;;;10.89;100.00
42633;BME280;28261;53.304;-6.284;2023-03-22T00:08:52;98136.56;;;10.89;100.00
42633;BME280;28261;53.304;-6.284;2023-03-22T00:10:56;98150.00;;;10.88;100.00
42633;BME280;28261;53.304;-6.284;2023-03-22T00:13:01;98160.94;;;10.84;100.00
42633;BME280;28261;53.304;-6.284;2023-03-22T00:15:07;98145.03;;;10.84;100.00
42633;BME280;28261;53.304;-6.284;2023-03-22T00:17:12;98144.69;;;10.88;100.00
42633;BME280;28261;53.304;-6.284;2023-03-22T00:19:15;98152.00;;;10.86;100.00
42633;BME280;28261;53.304;-6.284;2023-03-22T00:21:19;98158.94;;;10.87;100.00
42633;BME280;28261;53.304;-6.284;2023-03-22T00:23:23;98152.81;;;10.86;100.00
42633;BME280;28261;53.304;-6.284;2023-03-22T00:25:27;98145.69;;;10.87;100.00
42633;BME280;28261;53.304;-6.284;2023-03-22T00:27:31;98142.72;;;10.90;100.00
42633;BME280;28261;53.304;-6.284;2023-03-22T00:29:35;98149.69;;;10.91;100.00
42633;BME280;28261;53.304;-6.284;2023-03-22T00:31:41;98137.88;;;10.93;100.00
42633;BME280;28261;53.304;-6.284;2023-03-22T00:33:46;98142.03;;;10.96;100.00
42633;BME280;28261;53.304;-6.284;2023-03-22T00:35:51;98166.56;;;10.98;100.00
42633;BME280;28261;53.304;-6.284;2023-03-22T00:37:55;98154.97;;;10.99;100.00
42633;BME280;28261;53.304;-6.284;2023-03-22T00:39:58;98161.91;;;11.00;100.00
42633;BME280;28261;53.304;-6.284;2023-03-22T00:42:04;98172.69;;;10.98;100.00
42633;BME280;28261;53.304;-6.284;2023-03-22T00:44:08;98175.50;;;10.97;100.00
42633;BME280;28261;53.304;-6.284;2023-03-22T00:46:13;98181.78;;;10.96;100.00
42633;BME280;28261;53.304;-6.284;2023-03-22T00:48:20;98196.19;;;10.93;100.00
42633;BME280;28261;53.304;-6.284;2023-03-22T00:50:25;98212.28;;;10.92;100.00
42633;BME280;28261;53.304;-6.284;2023-03-22T00:52:30;98205.66;;;10.88;100.00
42633;BME280;28261;53.304;-6.284;2023-03-22T00:54:34;98190.09;;;10.84;100.00
42633;BME280;28261;53.304;-6.284;2023-03-22T00:56:38;98218.09;;;10.79;100.00
42633;BME280;28261;53.304;-6.284;2023-03-22T00:58:48;98220.41;;;10.74;100.00
42633;BME280;28261;53.304;-6.284;2023-03-22T01:00:52;98236.81;;;10.69;100.00
42633;BME280;28261;53.304;-6.284;2023-03-22T01:02:57;98255.03;;;10.64;100.00
42633;BME280;28261;53.304;-6.284;2023-03-22T01:05:07;98253.69;;;10.60;100.00
42633;BME280;28261;53.304;-6.284;2023-03-22T01:07:18;98272.56;;;10.57;100.00
42633;BME280;28261;53.304;-6.284;2023-03-22T01:09:22;98279.84;;;10.55;98.97
42633;BME280;28261;53.304;-6.284;2023-03-22T01:11:29;98299.69;;;10.50;97.17
42633;BME280;28261;53.304;-6.284;2023-03-22T01:13:34;98293.41;;;10.43;92.71
42633;BME280;28261;53.304;-6.284;2023-03-22T01:15:40;98309.41;;;10.33;89.28
42633;BME280;28261;53.304;-6.284;2023-03-22T01:17:44;98321.13;;;10.23;87.82
42633;BME280;28261;53.304;-6.284;2023-03-22T01:19:48;98327.34;;;10.13;84.76
42633;BME280;28261;53.304;-6.284;2023-03-22T01:21:55;98331.94;;;10.03;82.51
42633;BME280;28261;53.304;-6.284;2023-03-22T01:23:59;98341.66;;;9.94;79.70
42633;BME280;28261;53.304;-6.284;2023-03-22T01:26:04;98331.03;;;9.86;80.19
42633;BME280;28261;53.304;-6.284;2023-03-22T01:28:08;98340.59;;;9.79;79.82
42633;BME280;28261;53.304;-6.284;2023-03-22T01:30:13;98332.44;;;9.72;79.83
42633;BME280;28261;53.304;-6.284;2023-03-22T01:32:17;98316.53;;;9.64;78.48
42633;BME280;28261;53.304;-6.284;2023-03-22T01:34:21;98330.69;;;9.55;78.74
42633;BME280;28261;53.304;-6.284;2023-03-22T01:36:25;98338.41;;;9.48;78.57
42633;BME280;28261;53.304;-6.284;2023-03-22T01:38:31;98360.31;;;9.40;78.77
42633;BME280;28261;53.304;-6.284;2023-03-22T01:40:35;98354.00;;;9.33;79.20
42633;BME280;28261;53.304;-6.284;2023-03-22T01:42:39;98356.25;;;9.28;80.54
42633;BME280;28261;53.304;-6.284;2023-03-22T01:47:40;98377.66;;;9.17;79.81
42633;BME280;28261;53.304;-6.284;2023-03-22T01:49:48;98382.56;;;9.11;79.46
42633;BME280;28261;53.304;-6.284;2023-03-22T01:51:52;98369.97;;;9.05;80.04
42633;BME280;28261;53.304;-6.284;2023-03-22T01:54:15;98388.06;;;9.00;78.94
42633;BME280;28261;53.304;-6.284;2023-03-22T01:56:22;98376.31;;;8.94;77.51
42633;BME280;28261;53.304;-6.284;2023-03-22T01:58:28;98375.91;;;8.89;77.36
42633;BME280;28261;53.304;-6.284;2023-03-22T02:00:35;98394.03;;;8.84;75.87
42633;BME280;28261;53.304;-6.284;2023-03-22T02:02:58;98404.22;;;8.79;76.05
42633;BME280;28261;53.304;-6.284;2023-03-22T02:05:09;98410.91;;;8.73;74.89
42633;BME280;28261;53.304;-6.284;2023-03-22T02:07:15;98427.38;;;8.67;73.34
42633;BME280;28261;53.304;-6.284;2023-03-22T02:09:31;98428.09;;;8.59;72.52
42633;BME280;28261;53.304;-6.284;2023-03-22T02:11:36;98437.59;;;8.52;72.27
42633;BME280;28261;53.304;-6.284;2023-03-22T02:14:17;98432.06;;;8.45;71.79
42633;BME280;28261;53.304;-6.284;2023-03-22T02:16:38;98435.25;;;8.39;71.35
42633;BME280;28261;53.304;-6.284;2023-03-22T02:18:58;98456.78;;;8.35;71.56
42633;BME280;28261;53.304;-6.284;2023-03-22T02:21:36;98442.53;;;8.27;70.46
42633;BME280;28261;53.304;-6.284;2023-03-22T02:24:02;98454.34;;;8.23;70.51
42633;BME280;28261;53.304;-6.284;2023-03-22T02:28:48;98456.88;;;8.15;69.83
42633;BME280;28261;53.304;-6.284;2023-03-22T02:31:07;98471.31;;;8.11;69.73
42633;BME280;28261;53.304;-6.284;2023-03-22T02:33:39;98452.44;;;8.06;70.09
42633;BME280;28261;53.304;-6.284;2023-03-22T02:35:54;98443.97;;;8.02;69.75
42633;BME280;28261;53.304;-6.284;2023-03-22T02:40:49;98464.00;;;7.95;69.76
42633;BME280;28261;53.304;-6.284;2023-03-22T02:42:59;98457.34;;;7.91;70.33
42633;BME280;28261;53.304;-6.284;2023-03-22T02:45:10;98472.19;;;7.92;70.24
42633;BME280;28261;53.304;-6.284;2023-03-22T02:47:20;98470.81;;;7.88;70.53
42633;BME280;28261;53.304;-6.284;2023-03-22T02:49:31;98483.44;;;7.84;70.63
42633;BME280;28261;53.304;-6.284;2023-03-22T02:51:41;98492.47;;;7.82;71.17
42633;BME280;28261;53.304;-6.284;2023-03-22T02:53:49;98500.38;;;7.82;71.26
42633;BME280;28261;53.304;-6.284;2023-03-22T02:55:58;98505.94;;;7.78;71.57
42633;BME280;28261;53.304;-6.284;2023-03-22T02:58:08;98518.72;;;7.73;72.06
42633;BME280;28261;53.304;-6.284;2023-03-22T03:00:14;98527.63;;;7.72;72.03
42633;BME280;28261;53.304;-6.284;2023-03-22T03:02:21;98513.72;;;7.70;72.14
42633;BME280;28261;53.304;-6.284;2023-03-22T03:04:28;98535.09;;;7.67;72.75
42633;BME280;28261;53.304;-6.284;2023-03-22T03:06:36;98520.53;;;7.63;72.92
42633;BME280;28261;53.304;-6.284;2023-03-22T03:08:41;98525.38;;;7.58;73.31
42633;BME280;28261;53.304;-6.284;2023-03-22T03:10:48;98527.31;;;7.56;73.21
42633;BME280;28261;53.304;-6.284;2023-03-22T03:12:54;98528.56;;;7.52;73.86
42633;BME280;28261;53.304;-6.284;2023-03-22T03:14:57;98534.09;;;7.49;73.73
42633;BME280;28261;53.304;-6.284;2023-03-22T03:17:10;98540.47;;;7.46;73.98
42633;BME280;28261;53.304;-6.284;2023-03-22T03:19:20;98546.75;;;7.45;73.66
42633;BME280;28261;53.304;-6.284;2023-03-22T03:21:33;98553.25;;;7.41;73.87
42633;BME280;28261;53.304;-6.284;2023-03-22T03:23:46;98551.72;;;7.38;72.87
42633;BME280;28261;53.304;-6.284;2023-03-22T03:25:56;98556.44;;;7.35;72.62
42633;BME280;28261;53.304;-6.284;2023-03-22T03:28:07;98547.00;;;7.32;72.56
42633;BME280;28261;53.304;-6.284;2023-03-22T03:30:17;98565.72;;;7.29;73.04
42633;BME280;28261;53.304;-6.284;2023-03-22T03:32:27;98559.88;;;7.25;72.66
42633;BME280;28261;53.304;-6.284;2023-03-22T03:34:37;98555.84;;;7.21;72.64
42633;BME280;28261;53.304;-6.284;2023-03-22T03:36:48;98561.25;;;7.20;73.04
42633;BME280;28261;53.304;-6.284;2023-03-22T03:38:54;98575.38;;;7.19;72.93
42633;BME280;28261;53.304;-6.284;2023-03-22T03:41:02;98567.75;;;7.16;72.89
42633;BME280;28261;53.304;-6.284;2023-03-22T03:43:09;98584.66;;;7.13;72.85
42633;BME280;28261;53.304;-6.284;2023-03-22T03:45:14;98585.75;;;7.10;73.07
42633;BME280;28261;53.304;-6.284;2023-03-22T03:47:19;98592.13;;;7.08;72.98
42633;BME280;28261;53.304;-6.284;2023-03-22T03:49:23;98606.16;;;7.08;73.65
42633;BME280;28261;53.304;-6.284;2023-03-22T03:51:28;98603.66;;;7.07;73.42
42633;BME280;28261;53.304;-6.284;2023-03-22T03:53:32;98597.66;;;7.05;73.18
42633;BME280;28261;53.304;-6.284;2023-03-22T03:55:36;98606.66;;;7.02;72.99
42633;BME280;28261;53.304;-6.284;2023-03-22T03:57:39;98613.03;;;7.00;73.50
42633;BME280;28261;53.304;-6.284;2023-03-22T03:59:45;98622.75;;;6.99;73.47
42633;BME280;28261;53.304;-6.284;2023-03-22T04:01:59;98628.16;;;6.98;73.17
42633;BME280;28261;53.304;-6.284;2023-03-22T04:04:06;98629.97;;;6.97;73.59
42633;BME280;28261;53.304;-6.284;2023-03-22T04:06:34;98636.19;;;6.96;73.28
42633;BME280;28261;53.304;-6.284;2023-03-22T04:08:45;98633.81;;;6.93;73.32
42633;BME280;28261;53.304;-6.284;2023-03-22T04:10:59;98638.25;;;6.92;73.91
42633;BME280;28261;53.304;-6.284;2023-03-22T04:13:04;98655.84;;;6.92;73.52
42633;BME280;28261;53.304;-6.284;2023-03-22T04:15:10;98644.59;;;6.90;73.79
42633;BME280;28261;53.304;-6.284;2023-03-22T04:17:16;98646.53;;;6.88;73.69
42633;BME280;28261;53.304;-6.284;2023-03-22T04:19:20;98649.19;;;6.88;73.67
42633;BME280;28261;53.304;-6.284;2023-03-22T04:21:24;98659.84;;;6.86;74.12
42633;BME280;28261;53.304;-6.284;2023-03-22T04:23:33;98664.25;;;6.86;74.34
42633;BME280;28261;53.304;-6.284;2023-03-22T04:25:36;98659.94;;;6.85;74.00
42633;BME280;28261;53.304;-6.284;2023-03-22T04:27:45;98661.91;;;6.83;73.69
42633;BME280;28261;53.304;-6.284;2023-03-22T04:29:53;98651.63;;;6.80;74.06
42633;BME280;28261;53.304;-6.284;2023-03-22T04:32:19;98669.34;;;6.77;74.29
42633;BME280;28261;53.304;-6.284;2023-03-22T04:34:29;98671.16;;;6.77;74.25
42633;BME280;28261;53.304;-6.284;2023-03-22T04:36:37;98666.84;;;6.76;74.32
42633;BME280;28261;53.304;-6.284;2023-03-22T04:38:54;98675.69;;;6.75;74.48
42633;BME280;28261;53.304;-6.284;2023-03-22T04:40:58;98670.44;;;6.75;74.62
42633;BME280;28261;53.304;-6.284;2023-03-22T04:43:09;98672.25;;;6.74;74.73
42633;BME280;28261;53.304;-6.284;2023-03-22T04:45:23;98678.47;;;6.73;75.25
42633;BME280;28261;53.304;-6.284;2023-03-22T04:47:35;98690.94;;;6.71;75.31
42633;BME280;28261;53.304;-6.284;2023-03-22T04:49:41;98695.22;;;6.72;74.96
42633;BME280;28261;53.304;-6.284;2023-03-22T04:51:45;98691.06;;;6.70;75.38
42633;BME280;28261;53.304;-6.284;2023-03-22T04:54:01;98693.81;;;6.68;75.49
42633;BME280;28261;53.304;-6.284;2023-03-22T04:56:08;98697.44;;;6.67;75.59
42633;BME280;28261;53.304;-6.284;2023-03-22T04:58:12;98692.84;;;6.69;75.81
42633;BME280;28261;53.304;-6.284;2023-03-22T05:00:18;98700.06;;;6.67;76.09
42633;BME280;28261;53.304;-6.284;2023-03-22T05:02:23;98693.13;;;6.66;76.13
42633;BME280;28261;53.304;-6.284;2023-03-22T05:04:29;98707.97;;;6.67;76.37
42633;BME280;28261;53.304;-6.284;2023-03-22T05:06:40;98715.00;;;6.67;76.55
42633;BME280;28261;53.304;-6.284;2023-03-22T05:09:11;98709.03;;;6.65;76.96
42633;BME280;28261;53.304;-6.284;2023-03-22T05:11:15;98721.25;;;6.66;77.09
42633;BME280;28261;53.304;-6.284;2023-03-22T05:13:32;98718.50;;;6.67;77.41
42633;BME280;28261;53.304;-6.284;2023-03-22T05:15:38;98717.63;;;6.67;77.43
42633;BME280;28261;53.304;-6.284;2023-03-22T05:17:44;98718.50;;;6.67;77.60
42633;BME280;28261;53.304;-6.284;2023-03-22T05:19:51;98723.75;;;6.67;77.78
42633;BME280;28261;53.304;-6.284;2023-03-22T05:21:54;98732.34;;;6.69;77.86
42633;BME280;28261;53.304;-6.284;2023-03-22T05:24:18;98731.66;;;6.67;78.27
42633;BME280;28261;53.304;-6.284;2023-03-22T05:26:23;98731.66;;;6.67;77.85
42633;BME280;28261;53.304;-6.284;2023-03-22T05:28:29;98741.34;;;6.67;78.54
42633;BME280;28261;53.304;-6.284;2023-03-22T05:30:45;98733.31;;;6.68;78.29
42633;BME280;28261;53.304;-6.284;2023-03-22T05:33:09;98744.81;;;6.67;78.29
42633;BME280;28261;53.304;-6.284;2023-03-22T05:35:19;98739.28;;;6.70;78.31
42633;BME280;28261;53.304;-6.284;2023-03-22T05:37:27;98739.16;;;6.72;78.22
42633;BME280;28261;53.304;-6.284;2023-03-22T05:39:32;98730.44;;;6.71;78.21
42633;BME280;28261;53.304;-6.284;2023-03-22T05:41:36;98732.09;;;6.72;77.93
42633;BME280;28261;53.304;-6.284;2023-03-22T05:43:40;98737.25;;;6.74;77.58
42633;BME280;28261;53.304;-6.284;2023-03-22T05:45:46;98732.94;;;6.73;77.78
42633;BME280;28261;53.304;-6.284;2023-03-22T05:48:11;98731.00;;;6.75;77.36
42633;BME280;28261;53.304;-6.284;2023-03-22T05:50:18;98741.53;;;6.75;77.01
42633;BME280;28261;53.304;-6.284;2023-03-22T05:52:25;98737.13;;;6.75;76.59
42633;BME280;28261;53.304;-6.284;2023-03-22T05:55:01;98735.19;;;6.77;76.73
42633;BME280;28261;53.304;-6.284;2023-03-22T05:57:06;98739.63;;;6.77;76.82
42633;BME280;28261;53.304;-6.284;2023-03-22T05:59:10;98724.91;;;6.74;76.54
42633;BME280;28261;53.304;-6.284;2023-03-22T06:01:15;98729.34;;;6.74;76.44
42633;BME280;28261;53.304;-6.284;2023-03-22T06:03:22;98745.97;;;6.74;76.25
42633;BME280;28261;53.304;-6.284;2023-03-22T06:05:50;98740.72;;;6.74;75.99
42633;BME280;28261;53.304;-6.284;2023-03-22T06:08:08;98741.66;;;6.73;75.63
42633;BME280;28261;53.304;-6.284;2023-03-22T06:10:11;98733.75;;;6.73;75.31
42633;BME280;28261;53.304;-6.284;2023-03-22T06:12:16;98741.53;;;6.75;75.50
42633;BME280;28261;53.304;-6.284;2023-03-22T06:14:25;98739.03;;;6.73;75.05
42633;BME280;28261;53.304;-6.284;2023-03-22T06:16:39;98740.72;;;6.74;74.66
42633;BME280;28261;53.304;-6.284;2023-03-22T06:18:43;98742.63;;;6.72;74.10
42633;BME280;28261;53.304;-6.284;2023-03-22T06:20:48;98750.66;;;6.71;74.34
42633;BME280;28261;53.304;-6.284;2023-03-22T06:22:55;98749.00;;;6.70;74.32
42633;BME280;28261;53.304;-6.284;2023-03-22T06:25:00;98749.00;;;6.70;74.11
42633;BME280;28261;53.304;-6.284;2023-03-22T06:27:11;98755.09;;;6.70;74.49
42633;BME280;28261;53.304;-6.284;2023-03-22T06:29:15;98751.50;;;6.71;74.54
42633;BME280;28261;53.304;-6.284;2023-03-22T06:31:19;98736.66;;;6.70;74.53
42633;BME280;28261;53.304;-6.284;2023-03-22T06:33:27;98734.72;;;6.72;74.70
42633;BME280;28261;53.304;-6.284;2023-03-22T06:35:42;98724.09;;;6.74;74.29
42633;BME280;28261;53.304;-6.284;2023-03-22T06:37:52;98745.72;;;6.77;73.89
42633;BME280;28261;53.304;-6.284;2023-03-22T06:39:56;98734.22;;;6.78;73.69
42633;BME280;28261;53.304;-6.284;2023-03-22T06:42:01;98741.88;;;6.82;73.88
42633;BME280;28261;53.304;-6.284;2023-03-22T06:44:05;98739.94;;;6.84;73.74
42633;BME280;28261;53.304;-6.284;2023-03-22T06:46:35;98738.00;;;6.86;73.71
42633;BME280;28261;53.304;-6.284;2023-03-22T06:48:47;98750.09;;;6.88;73.68
42633;BME280;28261;53.304;-6.284;2023-03-22T06:50:51;98737.75;;;6.89;73.41
42633;BME280;28261;53.304;-6.284;2023-03-22T06:53:05;98736.78;;;6.90;73.59
42633;BME280;28261;53.304;-6.284;2023-03-22T06:55:09;98738.91;;;6.96;73.80
42633;BME280;28261;53.304;-6.284;2023-03-22T06:57:14;98732.63;;;7.08;73.39
42633;BME280;28261;53.304;-6.284;2023-03-22T06:59:18;98737.41;;;7.24;73.55
42633;BME280;28261;53.304;-6.284;2023-03-22T07:01:21;98735.31;;;7.49;72.58
42633;BME280;28261;53.304;-6.284;2023-03-22T07:03:25;98748.72;;;7.67;71.48
42633;BME280;28261;53.304;-6.284;2023-03-22T07:05:33;98728.44;;;7.68;71.80
42633;BME280;28261;53.304;-6.284;2023-03-22T07:07:37;98734.00;;;7.65;72.30
42633;BME280;28261;53.304;-6.284;2023-03-22T07:09:40;98725.34;;;7.62;72.71
42633;BME280;28261;53.304;-6.284;2023-03-22T07:11:44;98737.13;;;7.58;72.63
42633;BME280;28261;53.304;-6.284;2023-03-22T07:13:51;98736.72;;;7.53;72.75
42633;BME280;28261;53.304;-6.284;2023-03-22T07:15:56;98733.50;;;7.50;72.56
42633;BME280;28261;53.304;-6.284;2023-03-22T07:18:10;98710.06;;;7.47;73.04
42633;BME280;28261;53.304;-6.284;2023-03-22T07:20:13;98718.09;;;7.45;72.71
42633;BME280;28261;53.304;-6.284;2023-03-22T07:22:17;98719.06;;;7.44;73.04
42633;BME280;28261;53.304;-6.284;2023-03-22T07:24:25;98720.75;;;7.45;72.61
42633;BME280;28261;53.304;-6.284;2023-03-22T07:26:29;98718.09;;;7.45;73.10
42633;BME280;28261;53.304;-6.284;2023-03-22T07:28:35;98718.94;;;7.45;72.75
42633;BME280;28261;53.304;-6.284;2023-03-22T07:30:40;98723.09;;;7.48;72.33
42633;BME280;28261;53.304;-6.284;2023-03-22T07:32:46;98716.72;;;7.51;71.96
42633;BME280;28261;53.304;-6.284;2023-03-22T07:34:49;98714.78;;;7.53;71.72
42633;BME280;28261;53.304;-6.284;2023-03-22T07:36:53;98699.53;;;7.56;70.61
42633;BME280;28261;53.304;-6.284;2023-03-22T07:38:58;98714.25;;;7.59;70.17
42633;BME280;28261;53.304;-6.284;2023-03-22T07:41:11;98711.06;;;7.65;70.22
42633;BME280;28261;53.304;-6.284;2023-03-22T07:43:28;98710.84;;;7.68;69.31
42633;BME280;28261;53.304;-6.284;2023-03-22T07:45:45;98721.25;;;7.70;68.95
42633;BME280;28261;53.304;-6.284;2023-03-22T07:48:23;98717.22;;;7.75;69.66
42633;BME280;28261;53.304;-6.284;2023-03-22T07:50:48;98716.81;;;7.80;69.50
42633;BME280;28261;53.304;-6.284;2023-03-22T07:52:51;98718.34;;;7.83;69.89
42633;BME280;28261;53.304;-6.284;2023-03-22T07:54:55;98718.94;;;7.86;70.07
42633;BME280;28261;53.304;-6.284;2023-03-22T07:56:59;98714.91;;;7.92;70.63
42633;BME280;28261;53.304;-6.284;2023-03-22T07:59:03;98721.16;;;7.91;70.41
42633;BME280;28261;53.304;-6.284;2023-03-22T08:01:09;98718.38;;;7.92;70.23
42633;BME280;28261;53.304;-6.284;2023-03-22T08:03:31;98712.00;;;7.95;70.62
42633;BME280;28261;53.304;-6.284;2023-03-22T08:05:47;98716.88;;;8.00;70.88
42633;BME280;28261;53.304;-6.284;2023-03-22T08:07:52;98716.31;;;8.06;71.24
42633;BME280;28261;53.304;-6.284;2023-03-22T08:09:58;98732.00;;;8.07;70.73
42633;BME280;28261;53.304;-6.284;2023-03-22T08:12:02;98723.13;;;8.08;70.88
42633;BME280;28261;53.304;-6.284;2023-03-22T08:14:07;98716.88;;;8.09;71.28
42633;BME280;28261;53.304;-6.284;2023-03-22T08:16:14;98716.34;;;8.16;71.39
42633;BME280;28261;53.304;-6.284;2023-03-22T08:18:19;98720.22;;;8.21;71.35
42633;BME280;28261;53.304;-6.284;2023-03-22T08:20:23;98709.28;;;8.26;70.71
42633;BME280;28261;53.304;-6.284;2023-03-22T08:22:31;98719.25;;;8.32;70.21
42633;BME280;28261;53.304;-6.284;2023-03-22T08:24:54;98694.81;;;8.40;69.52
42633;BME280;28261;53.304;-6.284;2023-03-22T08:27:01;98711.66;;;8.49;69.24
42633;BME280;28261;53.304;-6.284;2023-03-22T08:29:18;98714.44;;;8.57;69.18
42633;BME280;28261;53.304;-6.284;2023-03-22T08:31:25;98712.47;;;8.69;69.06
42633;BME280;28261;53.304;-6.284;2023-03-22T08:33:29;98712.47;;;8.78;69.32
42633;BME280;28261;53.304;-6.284;2023-03-22T08:35:32;98713.31;;;8.89;68.96
42633;BME280;28261;53.304;-6.284;2023-03-22T08:37:36;98707.19;;;8.98;67.83
42633;BME280;28261;53.304;-6.284;2023-03-22T08:39:43;98715.22;;;9.06;67.56
42633;BME280;28261;53.304;-6.284;2023-03-22T08:42:00;98699.59;;;9.13;68.02
42633;BME280;28261;53.304;-6.284;2023-03-22T08:44:04;98706.25;;;9.17;67.79
42633;BME280;28261;53.304;-6.284;2023-03-22T08:46:09;98695.94;;;9.24;67.67
42633;BME280;28261;53.304;-6.284;2023-03-22T08:48:14;98704.84;;;9.32;67.34
42633;BME280;28261;53.304;-6.284;2023-03-22T08:50:34;98698.44;;;9.35;66.57
42633;BME280;28261;53.304;-6.284;2023-03-22T08:52:48;98700.34;;;9.43;65.89
42633;BME280;28261;53.304;-6.284;2023-03-22T08:55:09;98690.25;;;9.56;66.14
42633;BME280;28261;53.304;-6.284;2023-03-22T08:57:36;98680.72;;;9.73;65.69
42633;BME280;28261;53.304;-6.284;2023-03-22T08:59:58;98686.47;;;9.87;64.55
42633;BME280;28261;53.304;-6.284;2023-03-22T09:02:12;98688.31;;;10.04;64.75
42633;BME280;28261;53.304;-6.284;2023-03-22T09:04:18;98680.53;;;10.21;63.97
42633;BME280;28261;53.304;-6.284;2023-03-22T09:06:22;98678.50;;;10.32;63.62
42633;BME280;28261;53.304;-6.284;2023-03-22T09:08:27;98661.56;;;10.43;63.14
42633;BME280;28261;53.304;-6.284;2023-03-22T09:10:39;98664.13;;;10.53;62.59
42633;BME280;28261;53.304;-6.284;2023-03-22T09:12:45;98659.66;;;10.54;62.14
42633;BME280;28261;53.304;-6.284;2023-03-22T09:14:49;98661.16;;;10.56;62.21
42633;BME280;28261;53.304;-6.284;2023-03-22T09:16:53;98654.56;;;10.60;62.79
42633;BME280;28261;53.304;-6.284;2023-03-22T09:18:57;98649.66;;;10.65;62.23
42633;BME280;28261;53.304;-6.284;2023-03-22T09:21:05;98650.63;;;10.64;62.06
42633;BME280;28261;53.304;-6.284;2023-03-22T09:23:19;98647.81;;;10.66;62.12
42633;BME280;28261;53.304;-6.284;2023-03-22T09:25:23;98645.88;;;10.68;61.54
42633;BME280;28261;53.304;-6.284;2023-03-22T09:27:27;98651.00;;;10.70;62.03
42633;BME280;28261;53.304;-6.284;2023-03-22T09:29:32;98637.91;;;10.68;62.55
42633;BME280;28261;53.304;-6.284;2023-03-22T09:31:41;98645.09;;;10.76;62.14
42633;BME280;28261;53.304;-6.284;2023-03-22T09:33:52;98652.72;;;10.79;61.93
42633;BME280;28261;53.304;-6.284;2023-03-22T09:35:56;98646.91;;;10.75;61.82
42633;BME280;28261;53.304;-6.284;2023-03-22T09:38:01;98628.28;;;10.67;62.14
42633;BME280;28261;53.304;-6.284;2023-03-22T09:40:09;98642.56;;;10.74;61.91
42633;BME280;28261;53.304;-6.284;2023-03-22T09:42:26;98642.56;;;10.74;61.56
42633;BME280;28261;53.304;-6.284;2023-03-22T09:44:36;98633.97;;;10.72;61.62
42633;BME280;28261;53.304;-6.284;2023-03-22T09:46:48;98633.97;;;10.72;61.03
42633;BME280;28261;53.304;-6.284;2023-03-22T09:48:56;98634.88;;;10.63;61.54
42633;BME280;28261;53.304;-6.284;2023-03-22T09:51:01;98639.81;;;10.58;61.79
42633;BME280;28261;53.304;-6.284;2023-03-22T09:53:12;98639.75;;;10.49;62.01
42633;BME280;28261;53.304;-6.284;2023-03-22T09:55:18;98660.72;;;10.43;62.49
42633;BME280;28261;53.304;-6.284;2023-03-22T09:57:28;98648.94;;;10.37;62.83
42633;BME280;28261;53.304;-6.284;2023-03-22T09:59:39;98645.28;;;10.38;62.58
42633;BME280;28261;53.304;-6.284;2023-03-22T10:01:50;98639.69;;;10.41;62.99
42633;BME280;28261;53.304;-6.284;2023-03-22T10:06:34;98660.59;;;10.44;63.31
42633;BME280;28261;53.304;-6.284;2023-03-22T10:08:46;98646.00;;;10.40;64.07
42633;BME280;28261;53.304;-6.284;2023-03-22T10:10:53;98649.16;;;10.44;64.55
42633;BME280;28261;53.304;-6.284;2023-03-22T10:12:59;98635.59;;;10.47;64.59
42633;BME280;28261;53.304;-6.284;2023-03-22T10:15:12;98639.47;;;10.53;64.78
42633;BME280;28261;53.304;-6.284;2023-03-22T10:17:18;98644.97;;;10.59;64.33
42633;BME280;28261;53.304;-6.284;2023-03-22T10:19:27;98644.94;;;10.77;64.32
42633;BME280;28261;53.304;-6.284;2023-03-22T10:21:34;98636.81;;;11.05;64.29
42633;BME280;28261;53.304;-6.284;2023-03-22T10:23:42;98636.75;;;11.31;63.35
42633;BME280;28261;53.304;-6.284;2023-03-22T10:25:48;98635.50;;;11.52;62.45
42633;BME280;28261;53.304;-6.284;2023-03-22T10:27:54;98628.47;;;11.69;61.43
42633;BME280;28261;53.304;-6.284;2023-03-22T10:30:03;98613.88;;;11.81;61.68
42633;BME280;28261;53.304;-6.284;2023-03-22T10:32:13;98622.91;;;11.97;61.30
42633;BME280;28261;53.304;-6.284;2023-03-22T10:34:20;98628.56;;;12.10;60.89
42633;BME280;28261;53.304;-6.284;2023-03-22T10:36:27;98622.56;;;12.16;60.73
42633;BME280;28261;53.304;-6.284;2023-03-22T10:38:41;98613.31;;;12.21;60.06
42633;BME280;28261;53.304;-6.284;2023-03-22T10:40:50;98624.94;;;12.28;60.61
42633;BME280;28261;53.304;-6.284;2023-03-22T10:42:58;98615.28;;;12.35;60.21
42633;BME280;28261;53.304;-6.284;2023-03-22T10:45:07;98625.41;;;12.40;59.83
42633;BME280;28261;53.304;-6.284;2023-03-22T10:47:15;98608.81;;;12.38;60.08
42633;BME280;28261;53.304;-6.284;2023-03-22T10:49:25;98615.63;;;12.40;59.84
42633;BME280;28261;53.304;-6.284;2023-03-22T10:51:33;98615.47;;;12.42;60.02
42633;BME280;28261;53.304;-6.284;2023-03-22T10:53:40;98612.47;;;12.45;60.16
42633;BME280;28261;53.304;-6.284;2023-03-22T10:55:47;98606.97;;;12.46;60.18
42633;BME280;28261;53.304;-6.284;2023-03-22T10:57:57;98610.31;;;12.48;58.92
42633;BME280;28261;53.304;-6.284;2023-03-22T11:00:03;98609.31;;;12.49;59.49
42633;BME280;28261;53.304;-6.284;2023-03-22T11:02:21;98587.19;;;12.57;58.52
42633;BME280;28261;53.304;-6.284;2023-03-22T11:04:25;98614.63;;;12.58;59.09
42633;BME280;28261;53.304;-6.284;2023-03-22T11:06:38;98614.47;;;12.51;58.92
42633;BME280;28261;53.304;-6.284;2023-03-22T11:08:45;98609.63;;;12.46;59.07
42633;BME280;28261;53.304;-6.284;2023-03-22T11:10:50;98615.28;;;12.43;57.97
42633;BME280;28261;53.304;-6.284;2023-03-22T11:13:12;98606.97;;;12.46;59.01
42633;BME280;28261;53.304;-6.284;2023-03-22T11:15:26;98609.31;;;12.58;59.46
42633;BME280;28261;53.304;-6.284;2023-03-22T11:17:31;98605.31;;;12.70;59.44
42633;BME280;28261;53.304;-6.284;2023-03-22T11:19:38;98603.47;;;12.70;59.20
42633;BME280;28261;53.304;-6.284;2023-03-22T11:21:44;98598.31;;;12.69;59.73
42633;BME280;28261;53.304;-6.284;2023-03-22T11:23:54;98596.97;;;12.73;59.33
42633;BME280;28261;53.304;-6.284;2023-03-22T11:26:05;98599.13;;;12.78;59.35
42633;BME280;28261;53.304;-6.284;2023-03-22T11:28:17;98594.63;;;12.86;58.99